Mahackala, Russia
Current Conditions -  °F | °C
As of 3:30 PM on Wednesday 22 Oct 2014 (Local Time) from URML Reporting Station
Few Clouds Few Clouds  
Wind Chill: 64°   Ceiling: Unl
Heat Index: 64°   Visibility: 6mi
Dew Point: 52°   Wind: 4mph
Humidity: 64%   Direction: 90°E
Pressure: 29.83"   Gusts: NA
Location:  42.97°N, 47.49°E
Report Text: URML 221230Z 09002MPS 050V120 9999 FEW100 18/11 Q1010 NOSIG RMKQFE757/1009
Loading
Personal Weather Stations






























Interactive Weather Map
Tropical Storm Tracking
New forecast layout! Learn more

10-Day Weather Forecast

Advertisements
Track Severe Weather on mobile